Time;durP1;ratioP1;P1;durP2;ratioP2;P2;SDS_P1;SDS_P2;PMS_P1;PMS_P2;Temp;Humidity;BMP_temperature;BMP_pressure;BME280_temperature;BME280_humidity;BME280_pressure;Samples;Min_cycle;Max_cycle;Signal;HPM_P1;HPM_P2
2022/08/26 00:00:35;;;;;;;2.90;2.35;;;;;;;27.24;47.14;101419.22;5083816;28;20054;-51
2022/08/26 00:03:00;;;;;;;1.80;1.67;;;;;;;27.23;47.29;101417.53;5074167;28;20042;-45
2022/08/26 00:05:26;;;;;;;2.03;1.80;;;;;;;27.23;47.61;101425.72;5079479;28;20386;-50
2022/08/26 00:07:52;;;;;;;1.67;1.48;;;;;;;27.22;47.59;101422.16;5073765;28;20035;-48
2022/08/26 00:10:18;;;;;;;2.00;1.70;;;;;;;27.22;47.32;101419.41;5074303;28;20083;-48
2022/08/26 00:12:43;;;;;;;2.30;1.70;;;;;;;27.22;47.18;101422.16;5071557;28;20039;-47
2022/08/26 00:15:12;;;;;;;1.95;1.80;;;;;;;27.23;47.20;101423.84;5085226;28;20033;-47
2022/08/26 00:17:37;;;;;;;1.95;1.70;;;;;;;27.21;47.50;101423.22;5084102;28;20020;-49
2022/08/26 00:20:05;;;;;;;1.92;1.80;;;;;;;27.22;47.17;101421.31;5084897;28;20059;-48
2022/08/26 00:22:30;;;;;;;2.03;1.83;;;;;;;27.22;47.27;101429.50;5084598;28;20021;-50
2022/08/26 00:24:55;;;;;;;2.85;1.88;;;;;;;27.20;47.35;101424.25;5084436;28;20047;-48
2022/08/26 00:27:20;;;;;;;2.17;1.73;;;;;;;27.18;47.34;101423.63;5084953;28;20052;-48
2022/08/26 00:29:46;;;;;;;3.08;1.58;;;;;;;27.18;47.48;101412.69;5084712;28;20025;-50
2022/08/26 00:32:11;;;;;;;2.63;1.75;;;;;;;27.17;47.34;101416.50;5071408;28;20029;-49
2022/08/26 00:34:36;;;;;;;1.85;1.70;;;;;;;27.17;47.34;101428.25;5078882;28;20025;-48
2022/08/26 00:37:02;;;;;;;1.58;1.42;;;;;;;27.16;47.30;101421.13;5073202;28;20021;-50
2022/08/26 00:39:27;;;;;;;2.80;1.88;;;;;;;27.16;47.21;101421.13;5075608;28;20024;-46
2022/08/26 00:41:53;;;;;;;1.65;1.55;;;;;;;27.16;47.53;101425.75;5084492;28;20122;-47
2022/08/26 00:44:18;;;;;;;1.63;1.50;;;;;;;27.15;47.45;101421.34;5083285;28;20029;-48
2022/08/26 00:46:45;;;;;;;2.00;1.80;;;;;;;27.15;47.54;101426.78;5078182;28;20016;-48
2022/08/26 00:49:30;;;;;;;1.63;1.35;;;;;;;27.15;47.38;101427.63;5084201;28;20017;-49
2022/08/26 00:52:00;;;;;;;1.58;1.48;;;;;;;27.14;47.59;101417.78;5069127;28;20031;-45
2022/08/26 00:54:26;;;;;;;1.40;1.30;;;;;;;27.14;47.34;101420.50;5082171;28;20040;-50
2022/08/26 00:56:57;;;;;;;2.35;2.00;;;;;;;27.14;47.68;101427.81;5070861;28;20029;-45
2022/08/26 00:59:23;;;;;;;2.25;1.83;;;;;;;27.13;47.52;101428.88;5069135;28;20027;-46
2022/08/26 01:01:49;;;;;;;1.80;1.67;;;;;;;27.11;47.43;101423.63;5080745;28;20025;-47
2022/08/26 01:04:19;;;;;;;1.92;1.73;;;;;;;27.13;47.39;101431.59;5083270;28;20016;-49
2022/08/26 01:06:47;;;;;;;1.92;1.67;;;;;;;27.11;47.71;101433.72;5081354;28;20076;-49
2022/08/26 01:09:12;;;;;;;1.65;1.55;;;;;;;27.10;47.51;101421.97;5079200;28;20031;-46
2022/08/26 01:11:38;;;;;;;1.80;1.50;;;;;;;27.11;47.52;101426.38;5068030;28;20021;-49
2022/08/26 01:14:04;;;;;;;1.92;1.70;;;;;;;27.07;47.41;101418.78;5077935;28;20036;-46
2022/08/26 01:16:31;;;;;;;1.70;1.60;;;;;;;27.09;47.41;101414.81;5074110;28;20545;-49
2022/08/26 01:19:02;;;;;;;2.58;1.98;;;;;;;27.08;47.55;101418.56;5075073;28;20050;-49
2022/08/26 01:21:38;;;;;;;2.00;1.80;;;;;;;27.10;47.76;101423.84;5077342;28;20535;-50
2022/08/26 01:24:04;;;;;;;2.10;1.90;;;;;;;27.08;47.60;101418.56;5075078;28;20020;-50
2022/08/26 01:26:35;;;;;;;2.67;1.83;;;;;;;27.08;47.59;101421.28;5068409;28;20032;-51
2022/08/26 01:29:03;;;;;;;1.52;1.42;;;;;;;27.07;47.60;101425.09;5072106;28;20033;-51
2022/08/26 01:31:34;;;;;;;2.00;1.70;;;;;;;27.06;47.42;101417.94;5075899;28;20051;-48
2022/08/26 01:34:11;;;;;;;2.00;1.52;;;;;;;27.06;47.30;101420.69;5072742;28;20024;-48
2022/08/26 01:36:40;;;;;;;1.90;1.65;;;;;;;27.04;47.65;101420.03;5082481;28;20490;-49
2022/08/26 01:39:06;;;;;;;1.77;1.65;;;;;;;27.06;47.60;101425.28;5082964;28;20024;-49
2022/08/26 01:41:32;;;;;;;2.05;1.50;;;;;;;27.05;47.53;101427.16;5083315;28;20021;-50
2022/08/26 01:43:58;;;;;;;2.47;2.00;;;;;;;27.04;47.39;101425.50;5083403;28;20031;-49
2022/08/26 01:46:24;;;;;;;2.55;1.63;;;;;;;26.99;47.86;101419.00;5080097;28;20024;-49
2022/08/26 01:48:50;;;;;;;2.05;1.80;;;;;;;27.04;47.42;101430.13;5083373;28;20079;-48
2022/08/26 01:51:17;;;;;;;2.10;1.85;;;;;;;27.01;47.73;101425.06;5082248;28;20025;-49
2022/08/26 01:53:43;;;;;;;1.58;1.38;;;;;;;26.99;47.61;101419.84;5047314;28;20032;-50
2022/08/26 01:56:09;;;;;;;2.17;1.77;;;;;;;26.99;47.59;101432.66;5071222;28;20044;-47
2022/08/26 01:58:40;;;;;;;1.55;1.45;;;;;;;27.02;47.50;101429.50;5082684;28;20044;-46
2022/08/26 02:01:06;;;;;;;1.70;1.60;;;;;;;27.01;47.69;101430.53;5081614;28;20020;-47
2022/08/26 02:03:32;;;;;;;2.03;1.80;;;;;;;27.00;47.39;101432.41;5083264;28;20054;-49
2022/08/26 02:05:59;;;;;;;1.70;1.60;;;;;;;27.01;47.59;101436.81;5083454;28;20016;-50
2022/08/26 02:08:32;;;;;;;2.10;1.70;;;;;;;27.01;47.85;101442.28;5083142;28;20060;-49
2022/08/26 02:10:57;;;;;;;1.60;1.50;;;;;;;27.00;47.75;101445.22;5082720;28;20496;-48
2022/08/26 02:13:25;;;;;;;1.60;1.50;;;;;;;26.99;47.46;101438.94;5071331;28;20021;-46
2022/08/26 02:15:51;;;;;;;1.90;1.70;;;;;;;26.99;47.91;101444.41;5080913;28;20020;-51
2022/08/26 02:18:17;;;;;;;1.40;1.30;;;;;;;26.99;47.70;101443.56;5081261;28;20036;-46
2022/08/26 02:20:42;;;;;;;1.75;1.60;;;;;;;26.98;47.70;101448.19;5068767;28;20032;-48
2022/08/26 02:23:07;;;;;;;1.60;1.50;;;;;;;26.97;47.69;101438.28;5075306;28;20486;-51
2022/08/26 02:25:40;;;;;;;1.50;1.40;;;;;;;26.96;47.43;101442.06;5077034;28;20462;-48
2022/08/26 02:28:06;;;;;;;1.98;1.70;;;;;;;26.94;47.66;101440.63;5061731;28;20084;-48
2022/08/26 02:30:32;;;;;;;1.70;1.60;;;;;;;26.97;47.55;101443.75;5081672;28;20028;-46
2022/08/26 02:33:00;;;;;;;1.67;1.50;;;;;;;26.96;47.84;101438.50;5077315;28;20027;-47
2022/08/26 02:35:25;;;;;;;1.55;1.45;;;;;;;26.96;48.43;101438.50;5074011;28;20023;-46
2022/08/26 02:37:51;;;;;;;2.30;1.65;;;;;;;26.95;47.73;101436.84;5068697;28;20029;-46
2022/08/26 02:40:23;;;;;;;1.98;1.80;;;;;;;26.94;47.59;101443.34;5073235;28;20048;-46
2022/08/26 02:42:48;;;;;;;1.58;1.35;;;;;;;26.94;47.42;101449.66;5076751;28;20029;-50
2022/08/26 02:45:13;;;;;;;2.20;1.65;;;;;;;26.93;47.67;101442.47;5070382;28;20028;-47
2022/08/26 02:47:39;;;;;;;1.83;1.40;;;;;;;26.94;47.55;101446.91;5082472;28;20033;-48
2022/08/26 02:50:05;;;;;;;1.63;1.52;;;;;;;26.94;47.48;101448.81;5080684;28;20024;-46
2022/08/26 02:52:31;;;;;;;1.30;1.20;;;;;;;26.92;47.47;101446.28;5071246;28;20080;-50
2022/08/26 02:54:56;;;;;;;1.40;1.20;;;;;;;26.90;47.70;101434.75;5068117;28;20045;-47
2022/08/26 02:57:22;;;;;;;1.67;1.58;;;;;;;26.91;47.83;101439.97;5068745;28;20471;-46
2022/08/26 02:59:47;;;;;;;2.33;1.48;;;;;;;26.91;47.85;101439.97;5082555;28;20036;-48
2022/08/26 03:02:12;;;;;;;1.60;1.50;;;;;;;26.90;47.40;101435.56;5067849;28;20049;-50
2022/08/26 03:04:38;;;;;;;1.75;1.52;;;;;;;26.89;47.57;101435.81;5082760;28;20618;-49
2022/08/26 03:07:04;;;;;;;1.55;1.40;;;;;;;26.91;47.73;101433.69;5080918;28;20381;-46
2022/08/26 03:09:30;;;;;;;1.50;1.40;;;;;;;26.85;47.86;101424.47;5070511;28;20721;-47
2022/08/26 03:11:56;;;;;;;1.85;1.60;;;;;;;26.87;47.74;101432.41;5086012;28;20025;-49
2022/08/26 03:14:24;;;;;;;1.70;1.60;;;;;;;26.89;47.88;101431.19;5072654;28;20040;-48
2022/08/26 03:16:53;;;;;;;1.67;1.33;;;;;;;26.84;47.69;101425.47;5085270;28;20031;-47
2022/08/26 03:19:18;;;;;;;;;;;;;;;26.84;47.72;101421.91;5081852;28;20055;-49
2022/08/26 03:21:43;;;;;;;2.20;1.67;;;;;;;26.85;47.92;101426.34;5076810;28;19908;-50
2022/08/26 03:24:10;;;;;;;2.05;1.55;;;;;;;26.84;47.64;101422.75;5071898;28;20489;-46
2022/08/26 03:26:35;;;;;;;2.10;1.80;;;;;;;26.84;47.59;101430.09;5085753;28;20032;-49
2022/08/26 03:31:44;;;;;;;1.70;1.33;;;;;;;26.84;47.93;101427.38;5085459;28;20031;-48
2022/08/26 03:34:09;;;;;;;1.23;1.13;;;;;;;26.83;47.79;101421.09;5085848;28;20024;-49
2022/08/26 03:36:35;;;;;;;1.75;1.65;;;;;;;26.83;47.63;101420.25;5086113;28;20063;-46
2022/08/26 03:39:01;;;;;;;1.52;1.23;;;;;;;26.82;47.71;101421.31;5086029;28;20037;-48
2022/08/26 03:41:26;;;;;;;1.48;1.38;;;;;;;26.83;48.09;101420.25;5085385;28;20027;-49
2022/08/26 03:43:51;;;;;;;1.33;1.20;;;;;;;26.82;47.63;101429.50;5085682;28;20032;-50
2022/08/26 03:46:17;;;;;;;1.65;1.55;;;;;;;26.81;47.82;101423.19;5084784;28;20060;-50
2022/08/26 03:48:42;;;;;;;1.50;1.35;;;;;;;26.80;47.75;101424.22;5085137;28;20054;-51
2022/08/26 03:51:13;;;;;;;1.88;1.40;;;;;;;26.77;47.56;101421.09;5085529;28;20047;-50
2022/08/26 03:53:38;;;;;;;1.15;1.05;;;;;;;26.81;47.72;101431.38;5085603;28;20048;-46
2022/08/26 03:56:05;;;;;;;1.52;1.30;;;;;;;26.78;47.57;101434.53;5084903;28;20040;-44
2022/08/26 03:58:30;;;;;;;1.20;1.10;;;;;;;26.81;47.62;101436.84;5071675;28;20047;-48
2022/08/26 04:00:56;;;;;;;1.40;1.30;;;;;;;26.80;47.57;101435.13;5076561;28;20017;-47
2022/08/26 04:06:06;;;;;;;1.92;1.38;;;;;;;26.78;47.67;101428.22;5073405;28;20042;-50
2022/08/26 04:08:31;;;;;;;1.55;1.30;;;;;;;26.76;47.82;101438.50;5085299;28;20021;-50
2022/08/26 04:10:57;;;;;;;1.33;1.00;;;;;;;26.74;47.81;101433.25;5075454;28;20025;-51
2022/08/26 04:13:22;;;;;;;1.73;1.38;;;;;;;26.77;47.69;101432.00;5073393;28;20044;-49
2022/08/26 04:15:47;;;;;;;1.50;1.20;;;;;;;26.77;47.56;101440.19;5082393;28;20020;-49
2022/08/26 04:18:12;;;;;;;1.63;1.27;;;;;;;26.77;47.88;101440.19;5084309;28;20474;-50
2022/08/26 04:20:38;;;;;;;1.27;1.17;;;;;;;26.76;47.84;101438.50;5070419;28;20029;-49
2022/08/26 04:23:03;;;;;;;1.50;1.30;;;;;;;26.75;47.89;101434.94;5081679;28;20040;-48
2022/08/26 04:25:28;;;;;;;1.75;1.63;;;;;;;26.76;47.69;101433.03;5084116;28;20044;-47
2022/08/26 04:27:54;;;;;;;1.10;1.00;;;;;;;26.76;47.85;101431.16;5084275;28;20036;-52
2022/08/26 04:30:20;;;;;;;1.70;1.50;;;;;;;26.75;47.75;101434.94;5084347;28;20533;-53
2022/08/26 04:32:45;;;;;;;2.05;1.33;;;;;;;26.75;47.71;101437.66;5083959;28;20027;-49
2022/08/26 04:35:10;;;;;;;1.45;0.98;;;;;;;26.74;47.72;101433.25;5084397;28;20028;-48
2022/08/26 04:37:36;;;;;;;1.40;1.30;;;;;;;26.74;47.69;101441.44;5084563;28;20084;-47
2022/08/26 04:40:03;;;;;;;1.52;1.15;;;;;;;26.75;47.82;101437.66;5077181;28;20071;-49
2022/08/26 04:42:28;;;;;;;1.55;1.42;;;;;;;26.75;47.60;101440.38;5069914;28;20029;-46
2022/08/26 04:44:54;;;;;;;1.38;1.15;;;;;;;26.74;47.70;101438.72;5081118;28;20025;-49
2022/08/26 04:47:19;;;;;;;1.17;1.00;;;;;;;26.69;47.68;101433.03;5083722;28;20081;-50
2022/08/26 04:49:44;;;;;;;1.58;1.38;;;;;;;26.76;47.78;101446.66;5083865;28;20046;-48
2022/08/26 04:52:10;;;;;;;1.23;0.90;;;;;;;26.75;47.87;101443.09;5084032;28;20047;-48
2022/08/26 04:54:36;;;;;;;1.70;1.10;;;;;;;26.77;47.73;101451.09;5083551;28;20060;-48
2022/08/26 04:57:01;;;;;;;1.00;0.90;;;;;;;26.77;47.69;101456.56;5083892;28;20020;-48
2022/08/26 04:59:26;;;;;;;0.65;0.65;;;;;;;26.77;47.89;101451.09;5083667;28;20084;-47
2022/08/26 05:01:56;;;;;;;1.42;1.08;;;;;;;26.76;47.96;101452.13;5083012;28;20032;-50
2022/08/26 05:04:21;;;;;;;1.08;0.98;;;;;;;26.75;47.94;101453.19;5081553;28;20086;-45
2022/08/26 05:06:47;;;;;;;1.42;1.00;;;;;;;26.74;47.79;101448.78;5080806;28;20491;-46
2022/08/26 05:09:13;;;;;;;1.13;0.90;;;;;;;26.74;48.25;101454.25;5083462;28;20028;-49
2022/08/26 05:11:39;;;;;;;2.92;1.00;;;;;;;26.72;48.08;101449.00;5082780;28;20024;-48
2022/08/26 05:14:04;;;;;;;1.42;0.70;;;;;;;26.71;48.32;101457.38;5082032;28;20046;-49
2022/08/26 05:16:30;;;;;;;1.50;0.60;;;;;;;26.69;48.38;101454.88;5081997;28;20036;-47
2022/08/26 05:18:56;;;;;;;1.33;0.73;;;;;;;26.68;48.52;101447.75;5082855;28;20228;-48
2022/08/26 05:21:24;;;;;;;1.25;0.70;;;;;;;26.66;48.57;101450.66;5083489;28;20050;-50
2022/08/26 05:23:59;;;;;;;1.40;0.88;;;;;;;26.66;48.44;101455.28;5083453;28;20047;-49
2022/08/26 05:26:27;;;;;;;0.82;0.60;;;;;;;26.64;48.54;101455.50;5082709;28;20036;-48
2022/08/26 05:28:53;;;;;;;2.28;0.60;;;;;;;26.64;48.72;101454.66;5083203;28;20052;-47
2022/08/26 05:31:30;;;;;;;1.27;0.68;;;;;;;26.63;48.63;101453.81;5082820;28;20035;-47
2022/08/26 05:33:56;;;;;;;1.55;0.60;;;;;;;26.62;48.76;101454.00;5080514;28;20115;-48
2022/08/26 05:36:24;;;;;;;0.63;0.50;;;;;;;26.61;48.61;101455.91;5083414;28;20056;-48
2022/08/26 05:38:49;;;;;;;2.22;0.65;;;;;;;26.61;48.77;101464.06;5083069;28;20085;-48
2022/08/26 05:41:27;;;;;;;1.55;0.70;;;;;;;26.60;48.74;101467.03;5082605;28;20028;-52
2022/08/26 05:43:53;;;;;;;1.42;0.55;;;;;;;26.53;48.79;101458.81;5082993;28;20028;-49
2022/08/26 05:46:18;;;;;;;2.17;0.57;;;;;;;26.58;48.88;101477.28;5081163;28;20024;-46
2022/08/26 05:48:44;;;;;;;1.58;0.40;;;;;;;26.58;49.09;101469.09;5083246;28;20102;-50
2022/08/26 05:51:10;;;;;;;1.58;0.40;;;;;;;26.56;48.97;101476.66;5083059;28;20042;-47
2022/08/26 05:53:36;;;;;;;0.65;0.40;;;;;;;26.55;49.06;101475.81;5083226;28;20040;-48
2022/08/26 05:56:03;;;;;;;2.47;0.60;;;;;;;26.56;48.93;101480.22;5080284;28;20063;-53
2022/08/26 05:58:28;;;;;;;2.17;0.63;;;;;;;26.55;49.01;101478.56;5078393;28;20029;-53
2022/08/26 06:00:58;;;;;;;1.25;0.47;;;;;;;26.55;49.02;101474.97;5079567;28;20070;-50
2022/08/26 06:03:23;;;;;;;2.55;0.60;;;;;;;26.54;49.29;101486.91;5080230;28;20035;-50
2022/08/26 06:05:48;;;;;;;1.23;0.38;;;;;;;26.54;49.20;101484.19;5082886;28;20020;-49
2022/08/26 06:08:14;;;;;;;1.27;0.32;;;;;;;26.53;49.08;101493.44;5082872;28;20450;-50
2022/08/26 06:11:06;;;;;;;1.23;0.60;;;;;;;26.51;49.25;101488.19;5082300;28;20091;-52
2022/08/26 06:13:32;;;;;;;1.52;0.60;;;;;;;26.50;49.38;101491.09;5080257;28;20052;-49
2022/08/26 06:16:02;;;;;;;1.33;0.50;;;;;;;26.49;49.05;101489.44;5082523;28;20032;-48
2022/08/26 06:18:33;;;;;;;1.00;0.35;;;;;;;26.49;48.99;101498.44;5080041;28;20035;-55
2022/08/26 06:21:09;;;;;;;0.93;0.45;;;;;;;26.49;49.50;101494.88;5082714;28;20119;-52
2022/08/26 06:26:18;;;;;;;1.45;0.90;;;;;;;26.47;49.18;101499.72;5082348;28;20051;-49
2022/08/26 06:28:44;;;;;;;1.58;0.52;;;;;;;26.47;49.28;101499.72;5083317;28;20028;-54
2022/08/26 06:31:09;;;;;;;0.88;0.40;;;;;;;26.47;49.40;101505.16;5075174;28;20017;-50
2022/08/26 06:33:35;;;;;;;1.48;0.70;;;;;;;26.45;49.30;101501.78;5078558;28;20668;-50
2022/08/26 06:36:00;;;;;;;1.67;0.40;;;;;;;26.47;49.46;101516.06;5077479;28;20380;-50
2022/08/26 06:38:25;;;;;;;1.55;0.60;;;;;;;26.47;49.46;101516.06;5078130;28;20032;-53
2022/08/26 06:40:53;;;;;;;2.53;0.82;;;;;;;26.46;49.32;101523.38;5079132;28;20071;-49
2022/08/26 06:43:26;;;;;;;1.70;0.43;;;;;;;26.47;49.40;101516.91;5073358;28;20048;-47
2022/08/26 06:46:02;;;;;;;1.85;0.50;;;;;;;26.46;49.34;101528.84;5079522;28;20048;-49
2022/08/26 06:48:28;;;;;;;1.90;1.02;;;;;;;26.46;49.30;101517.09;5078604;28;20036;-49
2022/08/26 06:51:07;;;;;;;1.67;0.57;;;;;;;26.46;49.57;101526.13;5077974;28;20385;-50
2022/08/26 06:53:33;;;;;;;0.85;0.50;;;;;;;26.43;49.34;101524.63;5079692;28;20050;-48
2022/08/26 06:56:02;;;;;;;1.23;0.40;;;;;;;26.44;49.43;101522.78;5078090;28;20049;-49
2022/08/26 06:58:27;;;;;;;1.45;0.52;;;;;;;26.44;49.61;101525.50;5079342;28;20110;-49
2022/08/26 07:00:52;;;;;;;1.50;0.60;;;;;;;26.44;49.46;101536.41;5081559;28;20027;-48
2022/08/26 07:03:18;;;;;;;1.50;0.57;;;;;;;26.43;49.48;101532.81;5079386;28;20032;-46
2022/08/26 07:05:43;;;;;;;1.45;0.55;;;;;;;26.44;49.60;101533.66;5078168;28;20072;-49
2022/08/26 07:08:08;;;;;;;2.03;0.57;;;;;;;26.43;49.37;101534.69;5078448;28;20025;-50
2022/08/26 07:10:35;;;;;;;2.47;0.63;;;;;;;26.43;49.49;101540.16;5076282;28;20104;-49
2022/08/26 07:13:00;;;;;;;1.40;0.57;;;;;;;26.42;49.42;101542.03;5078391;28;20028;-49
2022/08/26 07:15:25;;;;;;;1.45;0.60;;;;;;;26.42;49.65;101536.59;5078812;28;20039;-49
2022/08/26 07:17:51;;;;;;;1.15;0.70;;;;;;;26.42;49.56;101538.44;5080435;28;20123;-47
2022/08/26 07:20:16;;;;;;;1.80;0.68;;;;;;;26.42;49.39;101544.75;5079535;28;20037;-47
2022/08/26 07:22:42;;;;;;;1.20;0.38;;;;;;;26.42;49.60;101542.03;5077946;28;20017;-46
2022/08/26 07:25:08;;;;;;;1.40;0.47;;;;;;;26.43;49.44;101543.72;5077871;28;20028;-49
2022/08/26 07:27:35;;;;;;;1.15;0.65;;;;;;;26.42;49.44;101541.16;5080549;28;20516;-50
2022/08/26 07:30:01;;;;;;;1.33;0.45;;;;;;;26.33;49.69;101528.75;5078312;28;20115;-47
2022/08/26 07:32:26;;;;;;;1.90;0.50;;;;;;;26.42;49.58;101550.22;5077141;28;20539;-49
2022/08/26 07:34:51;;;;;;;1.23;0.60;;;;;;;26.42;49.31;101546.63;5078091;28;20035;-48
2022/08/26 07:37:17;;;;;;;1.75;0.60;;;;;;;26.40;49.75;101549.56;5079929;28;20093;-48
2022/08/26 07:39:43;;;;;;;1.95;0.50;;;;;;;26.40;49.63;101548.72;5077179;28;20033;-49
2022/08/26 07:42:12;;;;;;;0.80;0.45;;;;;;;26.40;49.46;101554.19;5080323;28;20083;-49
2022/08/26 07:44:38;;;;;;;1.80;0.50;;;;;;;26.38;49.50;101546.22;5080967;28;20043;-49
2022/08/26 07:47:04;;;;;;;1.13;0.47;;;;;;;26.39;49.26;101560.69;5082487;28;20016;-52
2022/08/26 07:49:29;;;;;;;1.08;0.60;;;;;;;26.36;49.75;101561.06;5076743;28;20103;-49
2022/08/26 07:51:55;;;;;;;1.63;0.40;;;;;;;26.38;49.55;101561.75;5059704;28;20111;-47
2022/08/26 07:54:20;;;;;;;2.10;0.75;;;;;;;26.37;49.29;101573.66;5080078;28;20036;-49
2022/08/26 07:56:47;;;;;;;2.70;0.50;;;;;;;26.36;49.68;101572.81;5077036;28;20105;-47
2022/08/26 07:59:13;;;;;;;0.80;0.57;;;;;;;26.36;49.41;101570.09;5079820;28;20039;-50
2022/08/26 08:01:38;;;;;;;0.90;0.35;;;;;;;26.36;49.37;101570.09;5075647;28;20029;-46
2022/08/26 08:04:04;;;;;;;1.65;0.43;;;;;;;26.36;49.32;101561.91;5079862;28;20042;-50
2022/08/26 08:06:31;;;;;;;1.85;0.57;;;;;;;26.36;49.30;101570.09;5083217;28;20051;-52
2022/08/26 08:08:56;;;;;;;0.93;0.45;;;;;;;26.36;49.57;101563.81;5081089;28;20108;-55
2022/08/26 08:11:22;;;;;;;0.90;0.35;;;;;;;26.33;49.36;101572.38;5074445;28;20075;-53
2022/08/26 08:13:49;;;;;;;0.85;0.40;;;;;;;26.36;49.59;101577.44;5081703;28;20050;-50
2022/08/26 08:16:14;;;;;;;0.77;0.50;;;;;;;26.36;49.54;101582.91;5073915;28;20029;-54
2022/08/26 08:18:39;;;;;;;0.95;0.40;;;;;;;26.36;49.40;101580.16;5082339;28;20093;-54
2022/08/26 08:21:05;;;;;;;1.02;0.30;;;;;;;26.37;49.35;101581.84;5077090;28;20029;-55
2022/08/26 08:23:30;;;;;;;0.95;0.40;;;;;;;26.37;49.51;101585.41;5082903;28;20025;-53
2022/08/26 08:26:00;;;;;;;0.57;0.30;;;;;;;26.39;49.40;101583.34;5080362;28;20017;-46
2022/08/26 08:28:26;;;;;;;1.42;0.73;;;;;;;26.38;49.59;101578.94;5076081;28;20058;-47
2022/08/26 08:30:51;;;;;;;1.15;0.50;;;;;;;26.38;49.28;101578.94;5079164;28;20020;-55
2022/08/26 08:33:17;;;;;;;1.13;0.40;;;;;;;26.39;49.32;101596.13;5078445;28;20052;-48
2022/08/26 08:35:43;;;;;;;2.55;0.65;;;;;;;26.39;49.24;101599.69;5078005;28;20020;-58
2022/08/26 08:38:08;;;;;;;2.25;0.77;;;;;;;26.41;49.54;101592.13;5080452;28;20032;-57
2022/08/26 08:40:33;;;;;;;1.63;0.28;;;;;;;26.36;49.58;101589.19;5077663;28;20032;-58
2022/08/26 08:43:05;;;;;;;0.82;0.30;;;;;;;26.42;49.44;101598.44;5080084;28;20105;-56
2022/08/26 08:45:50;;;;;;;0.90;0.35;;;;;;;26.43;49.20;101594.69;5071604;28;20032;-55
2022/08/26 08:48:30;;;;;;;0.70;0.30;;;;;;;26.46;49.47;101593.44;5082306;28;20023;-49
2022/08/26 08:51:18;;;;;;;0.73;0.30;;;;;;;26.47;49.30;101592.44;5076334;28;20032;-58
2022/08/26 08:53:44;;;;;;;1.90;0.50;;;;;;;26.48;49.37;101586.75;5070005;28;20017;-56
2022/08/26 08:56:29;;;;;;;0.88;0.40;;;;;;;26.50;48.96;101592.84;5073907;28;20066;-55
2022/08/26 08:59:12;;;;;;;0.70;0.30;;;;;;;26.51;49.06;101588.25;5081166;28;20626;-55
2022/08/26 09:01:59;;;;;;;1.25;0.60;;;;;;;26.51;49.08;101583.63;5072744;28;20476;-59
2022/08/26 09:04:43;;;;;;;1.33;0.43;;;;;;;26.52;49.21;101589.94;5075688;28;20071;-50
2022/08/26 09:07:17;;;;;;;0.65;0.32;;;;;;;26.52;49.08;101585.31;5080530;28;20502;-51
2022/08/26 09:09:54;;;;;;;1.20;0.63;;;;;;;26.54;49.30;101585.09;5096845;28;20032;-55
2022/08/26 09:12:23;;;;;;;1.45;0.40;;;;;;;26.55;49.19;101582.19;5069803;28;20499;-55
2022/08/26 09:14:50;;;;;;;1.98;0.70;;;;;;;26.55;49.06;101586.78;5077066;28;20028;-58
2022/08/26 09:17:25;;;;;;;1.55;0.50;;;;;;;26.57;49.25;101599.19;5074344;28;20028;-58
2022/08/26 09:20:20;;;;;;;1.73;0.70;;;;;;;26.56;49.29;101589.31;5080100;28;20035;-48
2022/08/26 09:22:46;;;;;;;0.93;0.40;;;;;;;26.55;49.12;101590.38;5076215;28;20469;-50
2022/08/26 09:25:13;;;;;;;1.83;0.50;;;;;;;26.58;49.08;101584.50;5074637;28;20079;-54
2022/08/26 09:27:45;;;;;;;1.83;0.60;;;;;;;26.58;49.33;101594.56;5077273;28;20115;-52
2022/08/26 09:30:14;;;;;;;1.48;0.38;;;;;;;26.59;49.42;101590.78;5077078;28;20016;-57
2022/08/26 09:32:39;;;;;;;2.72;0.70;;;;;;;26.59;49.08;101588.06;5077785;28;20017;-51
2022/08/26 09:35:23;;;;;;;1.88;0.70;;;;;;;26.59;49.30;101585.31;5079874;28;20062;-60
2022/08/26 09:37:48;;;;;;;1.42;0.40;;;;;;;26.57;49.40;101585.53;5071281;28;20036;-60
2022/08/26 09:40:32;;;;;;;0.90;0.30;;;;;;;26.57;49.22;101585.53;5074810;28;20024;-54
2022/08/26 09:43:07;;;;;;;1.88;0.47;;;;;;;26.58;49.20;101589.09;5078890;28;20080;-59
2022/08/26 09:45:33;;;;;;;1.08;0.60;;;;;;;26.57;49.36;101593.72;5078551;28;20044;-55
2022/08/26 09:47:58;;;;;;;3.63;0.77;;;;;;;26.58;49.16;101594.56;5077321;28;20033;-53
2022/08/26 09:50:30;;;;;;;1.00;0.40;;;;;;;26.60;49.44;101596.06;5078810;28;20054;-54
2022/08/26 09:53:11;;;;;;;2.88;0.85;;;;;;;26.61;49.08;101596.88;5073223;28;20024;-58
2022/08/26 09:55:38;;;;;;;1.73;0.80;;;;;;;26.60;49.29;101597.94;5076031;28;20608;-56
2022/08/26 09:58:04;;;;;;;2.60;0.60;;;;;;;26.60;49.26;101590.59;5079629;28;20035;-51
2022/08/26 10:00:42;;;;;;;1.30;0.63;;;;;;;26.62;49.26;101595.84;5080097;28;20020;-53
2022/08/26 10:03:12;;;;;;;1.05;0.50;;;;;;;26.61;48.91;101600.44;5073910;28;20041;-56
2022/08/26 10:05:59;;;;;;;2.72;1.02;;;;;;;26.62;49.24;101601.28;5076351;28;20036;-52
2022/08/26 10:08:29;;;;;;;1.55;0.55;;;;;;;26.59;49.22;101602.56;5073014;28;20024;-56
2022/08/26 10:10:57;;;;;;;1.58;0.50;;;;;;;26.57;49.13;101599.19;5074672;28;20025;-58
2022/08/26 10:13:31;;;;;;;1.90;0.43;;;;;;;26.55;49.07;101593.09;5074753;28;20036;-60
2022/08/26 10:16:09;;;;;;;2.63;0.70;;;;;;;26.60;49.11;101597.94;5071455;28;20025;-58
2022/08/26 10:18:38;;;;;;;4.65;1.25;;;;;;;26.60;48.75;101596.06;5075385;28;20067;-48
2022/08/26 10:21:10;;;;;;;2.17;0.60;;;;;;;26.61;49.06;101596.88;5074079;28;20474;-52
2022/08/26 10:23:47;;;;;;;1.85;0.70;;;;;;;26.61;48.91;101603.19;5077609;28;20024;-48
2022/08/26 10:26:19;;;;;;;1.17;0.50;;;;;;;26.61;49.06;101605.91;5079585;28;20111;-49
2022/08/26 10:28:51;;;;;;;3.17;1.02;;;;;;;26.62;49.18;101601.28;5078542;28;20032;-50
2022/08/26 10:31:25;;;;;;;1.20;0.75;;;;;;;26.62;48.97;101598.56;5070259;28;20547;-53
2022/08/26 10:33:51;;;;;;;1.48;0.57;;;;;;;26.61;49.03;101595.00;5072246;28;20024;-55
2022/08/26 10:39:05;;;;;;;1.10;0.70;;;;;;;26.61;49.00;101597.72;5075802;28;20023;-52
2022/08/26 10:41:35;;;;;;;1.48;0.40;;;;;;;26.57;48.99;101599.19;5067002;28;20029;-54
2022/08/26 10:44:02;;;;;;;1.83;0.60;;;;;;;26.62;48.84;101601.28;5080596;28;20424;-51
2022/08/26 10:46:35;;;;;;;2.17;0.82;;;;;;;26.63;48.72;101606.56;5075919;28;20021;-54
2022/08/26 10:49:05;;;;;;;2.05;0.60;;;;;;;26.63;49.06;101606.56;5072819;28;20039;-48
2022/08/26 10:51:37;;;;;;;2.03;0.70;;;;;;;26.63;48.75;101606.56;5071646;28;20071;-49
2022/08/26 10:54:08;;;;;;;1.63;0.50;;;;;;;26.63;48.71;101592.94;5074121;28;20025;-52
2022/08/26 10:56:45;;;;;;;2.80;0.80;;;;;;;26.64;48.88;101600.06;5079975;28;20028;-52
2022/08/26 10:59:22;;;;;;;1.42;0.52;;;;;;;26.65;48.64;101600.88;5078894;28;20082;-55
2022/08/26 11:01:49;;;;;;;2.70;0.77;;;;;;;26.62;48.71;101599.41;5069439;28;20048;-49
2022/08/26 11:04:20;;;;;;;3.25;1.17;;;;;;;26.62;48.82;101602.13;5069982;28;20024;-53
2022/08/26 11:06:46;;;;;;;1.27;0.50;;;;;;;26.64;48.73;101610.13;5067072;28;20021;-58
2022/08/26 11:09:44;;;;;;;1.63;0.80;;;;;;;26.66;48.53;101608.03;5070709;28;20035;-54
2022/08/26 11:12:35;;;;;;;1.27;0.50;;;;;;;26.68;48.91;101605.94;5073302;28;20071;-58
2022/08/26 11:15:02;;;;;;;2.17;1.00;;;;;;;26.69;48.70;101607.63;5077491;28;20111;-58
2022/08/26 11:17:43;;;;;;;1.90;0.60;;;;;;;26.73;48.74;101605.34;5074009;28;20032;-52
2022/08/26 11:20:30;;;;;;;2.47;0.85;;;;;;;26.68;48.63;101597.75;5073912;28;20047;-50
2022/08/26 11:23:21;;;;;;;0.47;0.30;;;;;;;26.74;48.64;101613.31;5073879;28;20013;-57
2022/08/26 11:26:08;;;;;;;0.88;0.50;;;;;;;26.74;48.77;101602.38;5075004;28;20104;-57
2022/08/26 11:28:43;;;;;;;1.80;0.65;;;;;;;26.77;48.57;101606.63;5070498;28;20029;-46
2022/08/26 11:31:29;;;;;;;1.90;0.68;;;;;;;26.78;48.63;101600.94;5070862;28;20667;-52
2022/08/26 11:34:05;;;;;;;1.67;0.50;;;;;;;26.78;48.55;101609.13;5083146;28;20028;-45
2022/08/26 11:36:46;;;;;;;1.30;0.50;;;;;;;26.78;48.83;101600.09;5073833;28;20029;-48
2022/08/26 11:39:20;;;;;;;0.75;0.40;;;;;;;26.76;48.87;101607.63;5073727;28;20166;-51
2022/08/26 11:41:47;;;;;;;1.38;0.57;;;;;;;26.71;48.53;101600.06;5075601;28;20020;-54